createdAt,value
2019-04-30T00:00:15.785Z,5.20
2019-04-30T00:01:18.742Z,3.90
2019-04-30T00:02:15.938Z,4.20
2019-04-30T00:03:18.042Z,6.60
2019-04-30T00:04:15.796Z,6.20
2019-04-30T00:05:18.794Z,4.30
2019-04-30T00:06:15.727Z,3.80
2019-04-30T00:07:18.926Z,5.70
2019-04-30T00:08:16.012Z,5.20
2019-04-30T00:09:18.980Z,4.30
2019-04-30T00:10:15.525Z,4.10
2019-04-30T00:11:19.298Z,3.80
2019-04-30T00:12:15.758Z,5.30
2019-04-30T00:13:20.629Z,4.60
2019-04-30T00:14:15.361Z,4.10
2019-04-30T00:15:18.382Z,4.30
2019-04-30T00:16:15.488Z,4.60
2019-04-30T00:17:19.520Z,4.60
2019-04-30T00:18:15.630Z,3.50
2019-04-30T00:19:19.464Z,4.10
2019-04-30T00:20:17.746Z,4.20
2019-04-30T00:21:18.711Z,4.20
2019-04-30T00:22:15.838Z,8.50
2019-04-30T00:23:17.778Z,7.00
2019-04-30T00:24:15.949Z,4.20
2019-04-30T00:25:19.585Z,6.70
2019-04-30T00:26:17.247Z,3.90
2019-04-30T00:27:15.737Z,4.70
2019-04-30T00:28:15.766Z,4.40
2019-04-30T00:29:19.216Z,4.00
2019-04-30T00:30:15.823Z,4.20
2019-04-30T00:31:17.628Z,3.60
2019-04-30T00:32:16.103Z,4.00
2019-04-30T00:33:22.168Z,4.00
2019-04-30T00:34:15.941Z,5.50
2019-04-30T00:35:19.621Z,5.60
2019-04-30T00:36:17.324Z,4.10
2019-04-30T00:37:18.889Z,4.80
2019-04-30T00:38:16.077Z,4.50
2019-04-30T00:39:16.747Z,4.00
2019-04-30T00:40:16.117Z,8.60
2019-04-30T00:41:16.146Z,4.00
2019-04-30T00:42:18.649Z,4.30
2019-04-30T00:43:16.205Z,4.20
2019-04-30T00:44:19.936Z,3.60
2019-04-30T00:45:16.265Z,6.70
2019-04-30T00:46:17.366Z,8.50
2019-04-30T00:47:16.321Z,4.80
2019-04-30T00:48:19.423Z,3.90
2019-04-30T00:49:23.011Z,3.80
2019-04-30T00:50:16.410Z,4.00
2019-04-30T00:51:20.999Z,7.90
2019-04-30T00:52:16.469Z,3.90
2019-04-30T00:53:16.678Z,5.10
2019-04-30T00:54:17.654Z,5.60
2019-04-30T00:55:16.567Z,3.50
2019-04-30T00:56:19.983Z,4.20
2019-04-30T00:57:16.616Z,4.80
2019-04-30T00:58:24.478Z,4.30
2019-04-30T00:59:16.676Z,4.10
2019-04-30T01:00:19.599Z,6.20
2019-04-30T01:01:16.733Z,3.90
2019-04-30T01:02:20.136Z,3.80
2019-04-30T01:03:16.792Z,5.80
2019-04-30T01:04:19.459Z,4.30
2019-04-30T01:05:16.852Z,4.00
2019-04-30T01:06:24.000Z,3.60
2019-04-30T01:07:16.915Z,3.80
2019-04-30T01:08:21.141Z,8.00
2019-04-30T01:09:16.968Z,6.00
2019-04-30T01:10:19.618Z,4.30
2019-04-30T01:11:17.027Z,4.10
2019-04-30T01:12:24.587Z,4.10
2019-04-30T01:13:17.085Z,6.50
2019-04-30T01:14:18.866Z,6.40
2019-04-30T01:15:18.942Z,3.80
2019-04-30T01:16:17.172Z,4.90
2019-04-30T01:17:18.889Z,4.50
2019-04-30T01:18:19.180Z,5.90
2019-04-30T01:19:27.522Z,4.20
2019-04-30T01:20:19.242Z,5.80
2019-04-30T01:21:18.495Z,4.00
2019-04-30T01:22:21.582Z,4.40
2019-04-30T01:23:17.377Z,3.40
2019-04-30T01:24:19.021Z,3.90
2019-04-30T01:25:18.724Z,3.60
2019-04-30T01:26:18.726Z,4.20
2019-04-30T01:27:18.809Z,5.10
2019-04-30T01:28:22.876Z,4.50
2019-04-30T01:29:19.244Z,3.80
2019-04-30T01:30:21.559Z,4.30
2019-04-30T01:31:18.792Z,5.20
2019-04-30T01:32:20.929Z,9.40
2019-04-30T01:33:19.128Z,4.50
2019-04-30T01:34:19.453Z,5.40
2019-04-30T01:35:19.134Z,4.70
2019-04-30T01:36:19.274Z,4.20
2019-04-30T01:37:20.306Z,4.60
2019-04-30T01:38:18.938Z,4.30
2019-04-30T01:39:19.552Z,4.30
2019-04-30T01:40:19.028Z,3.90
2019-04-30T01:41:20.310Z,4.00
2019-04-30T01:42:18.526Z,3.90
2019-04-30T01:43:23.178Z,4.50
2019-04-30T01:44:19.531Z,5.30
2019-04-30T01:45:18.813Z,4.10
2019-04-30T01:46:18.955Z,5.30
2019-04-30T01:47:21.379Z,6.00
2019-04-30T01:48:19.377Z,3.60
2019-04-30T01:49:20.051Z,3.50
2019-04-30T01:50:19.407Z,4.10
2019-04-30T01:51:21.687Z,4.70
2019-04-30T01:52:19.392Z,4.40
2019-04-30T01:53:18.633Z,4.90
2019-04-30T01:54:23.943Z,4.00
2019-04-30T01:55:19.669Z,4.50
2019-04-30T01:56:19.169Z,4.90
2019-04-30T01:57:19.274Z,4.80
2019-04-30T01:58:19.393Z,4.20
2019-04-30T01:59:19.068Z,4.80
2019-04-30T02:00:19.548Z,4.70
2019-04-30T02:01:19.038Z,4.50
2019-04-30T02:02:18.584Z,4.60
2019-04-30T02:03:19.331Z,4.40
2019-04-30T02:04:19.610Z,4.20
2019-04-30T02:05:18.923Z,4.40
2019-04-30T02:06:19.692Z,4.10
2019-04-30T02:07:19.069Z,7.40
2019-04-30T02:08:19.559Z,3.90
2019-04-30T02:09:20.489Z,3.60
2019-04-30T02:10:18.811Z,3.80
2019-04-30T02:11:19.069Z,4.70
2019-04-30T02:12:19.730Z,4.30
2019-04-30T02:13:18.951Z,4.10
2019-04-30T02:14:19.033Z,6.10
2019-04-30T02:15:19.339Z,5.10
2019-04-30T02:16:21.079Z,4.40
2019-04-30T02:17:19.285Z,3.80
2019-04-30T02:18:19.539Z,4.30
2019-04-30T02:19:19.018Z,7.50
2019-04-30T02:20:19.048Z,5.30
2019-04-30T02:21:19.491Z,4.50
2019-04-30T02:22:19.100Z,4.50
2019-04-30T02:23:19.677Z,5.80
2019-04-30T02:24:19.324Z,4.20
2019-04-30T02:25:19.585Z,6.30
2019-04-30T02:26:19.217Z,4.90
2019-04-30T02:27:21.654Z,5.30
2019-04-30T02:28:19.274Z,4.10
2019-04-30T02:29:19.306Z,4.50
2019-04-30T02:30:20.871Z,4.50
2019-04-30T02:31:22.838Z,4.00
2019-04-30T02:32:20.852Z,4.20
2019-04-30T02:33:20.117Z,4.40
2019-04-30T02:34:22.061Z,5.10
2019-04-30T02:35:19.583Z,6.10
2019-04-30T02:37:02.055Z,6.10
2019-04-30T02:38:02.086Z,6.70
2019-04-30T02:52:03.926Z,4.10
2019-04-30T02:53:03.951Z,4.00
2019-04-30T02:54:03.983Z,5.00
2019-04-30T02:55:04.016Z,4.50
2019-04-30T02:56:04.040Z,5.20
2019-04-30T02:57:04.069Z,5.10
2019-04-30T02:58:04.125Z,4.70
2019-04-30T02:59:04.147Z,5.10
2019-04-30T03:00:04.159Z,4.70
2019-04-30T03:01:04.186Z,5.30
2019-04-30T03:02:04.216Z,4.50
2019-04-30T03:03:04.242Z,6.60
2019-04-30T04:41:59.807Z,10.70
2019-04-30T04:42:57.367Z,8.50
2019-04-30T04:43:59.878Z,8.00
2019-04-30T04:44:59.435Z,9.10
2019-04-30T04:45:59.471Z,8.40
2019-04-30T04:47:00.018Z,8.30
2019-04-30T04:47:59.713Z,10.70
2019-04-30T04:48:59.613Z,12.70
2019-04-30T04:50:00.364Z,14.00
2019-04-30T04:50:59.893Z,12.00
2019-04-30T04:51:59.179Z,10.70
2019-04-30T04:52:59.460Z,12.00
2019-04-30T04:54:00.145Z,16.10
2019-04-30T04:55:01.137Z,11.00
2019-04-30T04:55:59.920Z,14.50
2019-04-30T04:57:11.146Z,18.80
2019-04-30T04:57:59.820Z,20.10
2019-04-30T04:58:59.992Z,20.50
2019-04-30T05:00:02.484Z,15.70
2019-04-30T05:00:59.219Z,22.80
2019-04-30T05:01:59.826Z,25.50
2019-04-30T05:02:59.345Z,24.30
2019-04-30T05:03:59.062Z,19.60
2019-04-30T05:04:59.934Z,16.50
2019-04-30T05:06:01.809Z,19.40
2019-04-30T05:07:00.123Z,20.90
2019-04-30T05:07:58.429Z,26.70
2019-04-30T05:08:59.484Z,21.10
2019-04-30T05:10:00.547Z,25.70
2019-04-30T05:10:59.441Z,22.90
2019-04-30T05:11:58.602Z,26.90
2019-04-30T05:12:59.212Z,24.20
2019-04-30T05:13:58.948Z,25.40
2019-04-30T05:14:59.761Z,34.90
2019-04-30T05:15:59.385Z,27.10
2019-04-30T05:16:58.688Z,33.70
2019-04-30T05:17:59.212Z,28.50
2019-04-30T05:18:58.595Z,37.30
2019-04-30T05:19:58.746Z,37.00
2019-04-30T05:20:58.988Z,32.70
2019-04-30T05:21:59.665Z,37.70
2019-04-30T05:22:58.639Z,37.10
2019-04-30T05:23:59.086Z,30.90
2019-04-30T05:24:59.063Z,30.10
2019-04-30T05:25:58.925Z,36.60
2019-04-30T05:26:58.714Z,36.20
2019-04-30T05:27:58.780Z,30.80
2019-04-30T05:28:59.461Z,33.60
2019-04-30T05:29:59.586Z,34.60
2019-04-30T05:30:59.366Z,35.70
2019-04-30T05:31:58.762Z,31.20
2019-04-30T05:32:58.956Z,32.70
2019-04-30T05:33:58.823Z,36.70
2019-04-30T05:34:58.851Z,44.30
2019-04-30T05:35:59.393Z,30.70
2019-04-30T05:37:01.018Z,40.70
2019-04-30T05:37:59.309Z,36.20
2019-04-30T05:38:58.970Z,36.20
2019-04-30T05:40:01.003Z,49.80
2019-04-30T05:40:59.596Z,43.50
2019-04-30T05:41:59.056Z,41.40
2019-04-30T05:43:00.413Z,36.30
2019-04-30T05:43:59.445Z,41.60
2019-04-30T05:44:59.337Z,41.00
2019-04-30T05:45:59.200Z,52.20
2019-04-30T05:46:59.306Z,45.70
2019-04-30T05:47:59.254Z,41.30
2019-04-30T05:48:59.503Z,41.80
2019-04-30T05:49:59.294Z,42.30
2019-04-30T05:50:59.346Z,41.50
2019-04-30T05:51:59.436Z,44.80
2019-04-30T05:53:59.412Z,40.10
2019-04-30T05:55:00.151Z,41.60
2019-04-30T05:55:59.494Z,36.00
2019-04-30T05:56:59.501Z,43.50
2019-04-30T05:58:01.510Z,42.10
2019-04-30T06:00:59.894Z,41.20
2019-04-30T06:01:59.657Z,39.00
2019-04-30T06:02:59.730Z,38.00
2019-04-30T06:03:59.716Z,41.10
2019-04-30T06:04:59.737Z,34.30
2019-04-30T06:05:59.769Z,39.00
2019-04-30T06:06:59.797Z,42.00
2019-04-30T06:07:59.825Z,47.10
2019-04-30T06:09:06.511Z,37.20
2019-04-30T06:09:59.885Z,39.50
2019-04-30T06:10:59.915Z,36.70
2019-04-30T06:11:59.946Z,29.10
2019-04-30T06:12:59.974Z,36.90
2019-04-30T06:14:00.007Z,40.20
2019-04-30T06:15:00.057Z,39.90
2019-04-30T06:16:00.065Z,42.00
2019-04-30T06:17:00.120Z,42.50
2019-04-30T06:18:06.816Z,38.90
2019-04-30T06:19:00.151Z,46.00
2019-04-30T06:20:00.183Z,40.20
2019-04-30T06:21:00.210Z,35.70
2019-04-30T06:22:07.770Z,39.10
2019-04-30T06:23:00.309Z,48.20
2019-04-30T06:24:00.679Z,50.30
2019-04-30T06:25:00.356Z,33.80
2019-04-30T06:26:08.984Z,35.90
2019-04-30T06:27:00.389Z,40.90
2019-04-30T06:28:00.442Z,34.50
2019-04-30T06:30:00.907Z,39.80
2019-04-30T06:34:00.620Z,43.90
2019-04-30T06:37:02.126Z,40.10
2019-04-30T06:38:01.426Z,43.80
2019-04-30T06:39:00.745Z,44.10
2019-04-30T06:40:00.801Z,39.90
2019-04-30T06:41:01.232Z,44.00
2019-04-30T06:43:01.069Z,45.40
2019-04-30T06:44:00.894Z,36.40
2019-04-30T06:45:00.924Z,44.40
2019-04-30T06:46:00.953Z,38.60
2019-04-30T06:47:01.307Z,41.70
2019-04-30T06:48:01.012Z,46.70
2019-04-30T06:49:01.045Z,48.10
2019-04-30T06:50:01.326Z,40.40
2019-04-30T06:51:01.104Z,43.90
2019-04-30T06:52:01.133Z,43.00
2019-04-30T06:53:01.757Z,42.30
2019-04-30T06:54:01.194Z,43.20
2019-04-30T06:55:01.433Z,40.00
2019-04-30T06:56:01.255Z,40.90
2019-04-30T06:57:01.304Z,40.30
2019-04-30T06:58:12.094Z,44.90
2019-04-30T06:59:01.364Z,38.30
2019-04-30T07:00:01.395Z,36.70
2019-04-30T07:01:01.426Z,42.40
2019-04-30T07:02:01.454Z,37.00
2019-04-30T07:03:01.462Z,37.70
2019-04-30T07:04:01.515Z,47.60
2019-04-30T07:05:01.547Z,39.40
2019-04-30T07:06:01.575Z,47.80
2019-04-30T07:07:01.605Z,47.20
2019-04-30T07:08:08.899Z,44.10
2019-04-30T07:09:01.666Z,42.80
2019-04-30T07:11:07.440Z,48.70
2019-04-30T07:12:01.892Z,46.90
2019-04-30T07:13:01.989Z,45.60
2019-04-30T07:14:01.812Z,52.50
2019-04-30T07:15:01.820Z,45.00
2019-04-30T07:16:02.052Z,48.00
2019-04-30T07:17:02.209Z,49.70
2019-04-30T07:18:01.931Z,58.10
2019-04-30T07:19:01.941Z,50.10
2019-04-30T07:20:01.969Z,46.60
2019-04-30T07:21:01.998Z,46.40
2019-04-30T07:22:02.031Z,53.20
2019-04-30T07:23:03.338Z,61.40
2019-04-30T07:24:02.119Z,63.90
2019-04-30T07:25:02.448Z,57.30
2019-04-30T07:26:02.175Z,58.10
2019-04-30T07:27:02.857Z,57.90
2019-04-30T07:30:03.205Z,62.70
2019-04-30T07:31:13.169Z,67.10
2019-04-30T07:33:02.358Z,65.80
2019-04-30T07:34:02.388Z,73.40
2019-04-30T07:35:02.417Z,63.10
2019-04-30T07:36:02.447Z,69.60
2019-04-30T07:37:13.391Z,64.60
2019-04-30T07:38:04.817Z,70.40
2019-04-30T07:41:02.621Z,63.80
2019-04-30T07:42:02.852Z,58.20
2019-04-30T07:43:02.678Z,57.50
2019-04-30T07:44:02.688Z,63.90
2019-04-30T07:45:02.719Z,64.50
2019-04-30T07:46:02.747Z,61.00
2019-04-30T07:47:02.777Z,57.70
2019-04-30T07:49:03.953Z,62.80
2019-04-30T07:51:02.899Z,67.70
2019-04-30T07:52:03.651Z,66.90
2019-04-30T07:53:06.330Z,67.70
2019-04-30T07:54:02.989Z,67.40
2019-04-30T07:55:03.052Z,61.30
2019-04-30T07:56:03.077Z,55.60
2019-04-30T07:57:03.454Z,61.10
2019-04-30T07:58:03.119Z,61.50
2019-04-30T07:59:03.201Z,61.70
2019-04-30T08:00:03.375Z,64.50
2019-04-30T08:02:10.880Z,63.50
2019-04-30T08:03:03.264Z,66.10
2019-04-30T08:04:03.298Z,69.40
2019-04-30T08:05:03.347Z,65.60
2019-04-30T08:07:03.560Z,65.90
2019-04-30T08:08:17.719Z,67.60
2019-04-30T08:09:03.601Z,68.20
2019-04-30T08:10:03.476Z,68.20
2019-04-30T08:11:03.507Z,69.90
2019-04-30T08:12:05.058Z,72.20
2019-04-30T08:13:10.062Z,63.70
2019-04-30T08:14:03.939Z,63.30
2019-04-30T08:15:03.667Z,62.40
2019-04-30T08:16:03.659Z,59.30
2019-04-30T08:17:03.734Z,69.00
2019-04-30T08:18:05.978Z,61.80
2019-04-30T08:19:03.817Z,67.80
2019-04-30T08:20:03.809Z,61.00
2019-04-30T08:21:03.838Z,61.50
2019-04-30T08:22:05.967Z,57.10
2019-04-30T08:23:15.585Z,55.80
2019-04-30T08:24:03.926Z,60.70
2019-04-30T08:25:03.961Z,54.90
2019-04-30T08:26:03.967Z,50.50
2019-04-30T08:27:04.071Z,60.50
2019-04-30T08:28:04.027Z,57.50
2019-04-30T08:29:04.059Z,51.60
2019-04-30T08:30:04.091Z,56.90
2019-04-30T08:31:04.120Z,56.20
2019-04-30T08:32:04.150Z,55.80
2019-04-30T08:33:04.182Z,52.40
2019-04-30T08:34:04.215Z,52.80
2019-04-30T08:35:04.243Z,51.80
2019-04-30T08:36:04.274Z,57.00
2019-04-30T08:37:16.647Z,54.80
2019-04-30T08:38:04.337Z,60.70
2019-04-30T08:39:04.368Z,54.20
2019-04-30T08:40:04.450Z,57.10
2019-04-30T08:41:04.431Z,58.00
2019-04-30T08:42:04.462Z,64.40
2019-04-30T08:43:04.493Z,64.80
2019-04-30T08:44:04.524Z,62.10
2019-04-30T08:45:04.557Z,65.30
2019-04-30T08:46:04.587Z,60.70
2019-04-30T08:47:04.619Z,61.20
2019-04-30T08:48:04.650Z,69.90
2019-04-30T08:49:04.900Z,63.90
2019-04-30T08:50:04.755Z,64.00
2019-04-30T08:51:04.747Z,64.10
2019-04-30T08:53:33.477Z,67.60
2019-04-30T08:54:29.903Z,69.00
2019-04-30T08:55:30.516Z,68.60
2019-04-30T08:56:29.969Z,70.60
2019-04-30T08:57:30.223Z,68.00
2019-04-30T08:58:30.044Z,68.10
2019-04-30T08:59:30.063Z,69.40
2019-04-30T09:00:30.093Z,69.80
2019-04-30T09:01:30.124Z,69.00
2019-04-30T09:02:30.158Z,61.50
2019-04-30T09:03:30.188Z,66.90
2019-04-30T09:04:30.221Z,69.20
2019-04-30T09:05:30.617Z,68.60
2019-04-30T09:06:30.411Z,69.80
2019-04-30T09:07:30.331Z,71.80
2019-04-30T09:08:30.345Z,70.90
2019-04-30T09:09:30.382Z,74.00
2019-04-30T09:10:30.416Z,67.30
2019-04-30T09:11:38.531Z,69.80
2019-04-30T09:12:30.472Z,75.70
2019-04-30T09:13:30.506Z,73.50
2019-04-30T09:14:30.540Z,76.50
2019-04-30T09:15:30.573Z,71.00
2019-04-30T09:16:30.629Z,67.50
2019-04-30T09:17:30.631Z,68.60
2019-04-30T09:18:30.668Z,71.00
2019-04-30T09:19:30.695Z,68.60
2019-04-30T09:20:30.725Z,72.50
2019-04-30T09:21:30.758Z,73.70
2019-04-30T09:22:30.789Z,79.90
2019-04-30T09:23:44.014Z,79.50
2019-04-30T09:24:31.182Z,75.60
2019-04-30T09:25:30.885Z,82.70
2019-04-30T09:26:30.917Z,74.40
2019-04-30T09:27:30.950Z,79.40
2019-04-30T09:28:30.980Z,81.90
2019-04-30T09:29:31.013Z,85.80
2019-04-30T09:30:31.043Z,87.50
2019-04-30T09:31:31.076Z,84.70
2019-04-30T09:32:31.108Z,72.80
2019-04-30T09:33:31.138Z,70.90
2019-04-30T09:34:31.170Z,79.80
2019-04-30T09:35:32.207Z,77.90
2019-04-30T09:36:31.235Z,75.60
2019-04-30T09:37:31.266Z,79.00
2019-04-30T09:38:31.298Z,74.70
2019-04-30T09:39:31.333Z,71.10
2019-04-30T09:40:32.562Z,76.70
2019-04-30T09:41:31.401Z,69.50
2019-04-30T09:42:31.427Z,76.00
2019-04-30T09:43:31.459Z,72.90
2019-04-30T09:44:31.492Z,76.40
2019-04-30T09:45:31.521Z,71.80
2019-04-30T09:46:31.556Z,71.60
2019-04-30T09:47:31.587Z,73.90
2019-04-30T09:48:31.618Z,73.10
2019-04-30T09:49:31.651Z,74.30
2019-04-30T09:50:31.986Z,71.60
2019-04-30T09:51:32.116Z,77.40
2019-04-30T09:52:32.083Z,71.80
2019-04-30T09:53:31.966Z,64.90
2019-04-30T09:55:31.846Z,72.70
2019-04-30T09:56:31.882Z,68.90
2019-04-30T09:57:31.911Z,71.40
2019-04-30T09:58:31.945Z,66.40
2019-04-30T09:59:31.979Z,69.50
2019-04-30T10:00:32.011Z,68.00
2019-04-30T10:01:33.188Z,67.70
2019-04-30T10:02:32.079Z,60.60
2019-04-30T10:03:32.945Z,69.40
2019-04-30T10:04:32.551Z,67.40
2019-04-30T10:05:32.181Z,66.10
2019-04-30T10:06:39.517Z,63.60
2019-04-30T10:07:32.252Z,68.70
2019-04-30T10:08:32.381Z,62.70
2019-04-30T10:09:32.319Z,64.50
2019-04-30T10:10:32.353Z,63.60
2019-04-30T10:11:32.386Z,62.50
2019-04-30T10:12:32.423Z,65.60
2019-04-30T10:13:32.455Z,58.60
2019-04-30T10:14:32.493Z,62.50
2019-04-30T10:15:32.529Z,60.20
2019-04-30T10:16:32.557Z,60.80
2019-04-30T10:17:32.593Z,66.10
2019-04-30T10:18:32.627Z,60.20
2019-04-30T10:19:32.661Z,63.90
2019-04-30T10:20:32.694Z,57.60
2019-04-30T10:21:32.728Z,60.50
2019-04-30T10:22:32.763Z,63.10
2019-04-30T10:23:32.797Z,57.90
2019-04-30T10:24:33.961Z,63.40
2019-04-30T10:25:32.864Z,58.80
2019-04-30T10:26:32.902Z,65.40
2019-04-30T10:27:32.940Z,60.30
2019-04-30T10:28:32.969Z,54.30
2019-04-30T10:29:33.003Z,58.70
2019-04-30T10:30:33.036Z,59.30
2019-04-30T10:31:33.073Z,55.60
2019-04-30T10:32:33.106Z,57.90
2019-04-30T10:33:33.147Z,59.20
2019-04-30T10:34:33.176Z,53.20
2019-04-30T10:35:33.213Z,54.30
2019-04-30T10:36:33.249Z,54.70
2019-04-30T10:37:33.283Z,62.00
2019-04-30T10:38:33.319Z,52.40
2019-04-30T10:39:33.355Z,55.00
2019-04-30T10:40:33.413Z,53.70
2019-04-30T10:41:33.425Z,52.60
2019-04-30T10:42:34.834Z,53.60
2019-04-30T10:45:59.382Z,50.00
2019-04-30T10:46:59.498Z,51.90
2019-04-30T10:47:59.453Z,54.90
2019-04-30T10:48:59.495Z,62.50
2019-04-30T10:49:59.527Z,54.80
2019-04-30T10:50:59.556Z,50.00
2019-04-30T10:52:01.137Z,50.90
2019-04-30T10:52:59.627Z,52.30
2019-04-30T10:54:47.224Z,52.60
2019-04-30T10:55:48.595Z,50.10
2019-04-30T10:56:49.016Z,52.40
2019-04-30T10:57:47.327Z,53.10
2019-04-30T10:58:47.457Z,53.80
2019-04-30T10:59:48.697Z,53.90
2019-04-30T11:00:47.430Z,55.30
2019-04-30T11:01:49.234Z,50.30
2019-04-30T11:02:49.523Z,56.00
2019-04-30T11:03:47.532Z,51.20
2019-04-30T11:04:47.567Z,54.50
2019-04-30T11:05:48.836Z,55.70
2019-04-30T11:06:47.635Z,55.00
2019-04-30T11:07:49.444Z,50.40
2019-04-30T11:08:47.704Z,55.10
2019-04-30T11:09:49.322Z,56.30
2019-04-30T11:10:47.776Z,50.30
2019-04-30T11:11:49.604Z,53.40
2019-04-30T11:12:47.844Z,46.90
2019-04-30T11:13:47.877Z,45.40
2019-04-30T11:14:47.912Z,46.40
2019-04-30T11:15:49.210Z,52.30
2019-04-30T11:16:51.222Z,48.30
2019-04-30T11:17:49.620Z,46.70
2019-04-30T11:18:48.277Z,51.60
2019-04-30T11:19:49.262Z,50.70
2019-04-30T11:20:49.773Z,49.20
2019-04-30T11:21:48.346Z,50.30
2019-04-30T11:22:48.211Z,49.50
2019-04-30T11:23:49.405Z,52.80
2019-04-30T11:24:58.754Z,44.80
2019-04-30T11:25:50.854Z,49.10
2019-04-30T11:26:50.176Z,45.40
2019-04-30T11:27:50.604Z,45.40
2019-04-30T11:28:48.639Z,48.00
2019-04-30T11:29:49.451Z,39.50
2019-04-30T11:30:48.665Z,45.70
2019-04-30T11:31:48.758Z,45.50
2019-04-30T11:32:48.804Z,46.50
2019-04-30T11:33:48.854Z,40.90
2019-04-30T11:35:52.838Z,43.40
2019-04-30T11:36:48.696Z,44.50
2019-04-30T11:37:48.730Z,42.80
2019-04-30T11:38:48.830Z,39.40
2019-04-30T11:39:48.805Z,35.00
2019-04-30T11:40:48.841Z,37.80
2019-04-30T11:41:48.879Z,35.90
2019-04-30T11:42:48.915Z,41.60
2019-04-30T11:43:49.615Z,39.00
2019-04-30T11:44:49.217Z,44.70
2019-04-30T11:45:49.029Z,40.70
2019-04-30T11:46:49.553Z,42.90
2019-04-30T11:47:53.670Z,45.20
2019-04-30T11:48:49.140Z,42.80
2019-04-30T11:49:49.175Z,40.40
2019-04-30T11:50:49.746Z,39.90
2019-04-30T11:51:49.280Z,39.90
2019-04-30T11:52:49.287Z,41.80
2019-04-30T11:53:49.335Z,42.30
2019-04-30T11:54:54.144Z,41.40
2019-04-30T11:55:49.399Z,36.50
2019-04-30T11:56:50.450Z,38.40
2019-04-30T11:57:49.583Z,46.40
2019-04-30T11:58:49.520Z,34.90
2019-04-30T11:59:49.548Z,33.90
2019-04-30T12:00:49.633Z,38.00
2019-04-30T12:01:49.622Z,36.30
2019-04-30T12:02:52.788Z,34.10
2019-04-30T12:03:49.856Z,38.20
2019-04-30T12:04:49.733Z,40.50
2019-04-30T12:05:49.770Z,37.30
2019-04-30T12:06:49.805Z,38.80
2019-04-30T12:07:50.649Z,35.00
2019-04-30T12:08:49.879Z,40.90
2019-04-30T12:09:49.916Z,38.80
2019-04-30T12:10:49.957Z,33.50
2019-04-30T12:11:50.675Z,34.60
2019-04-30T12:12:50.025Z,30.10
2019-04-30T12:13:50.063Z,37.40
2019-04-30T12:14:50.104Z,37.00
2019-04-30T12:15:50.235Z,36.10
2019-04-30T12:16:50.644Z,36.60
2019-04-30T12:17:50.210Z,32.50
2019-04-30T12:18:50.245Z,35.30
2019-04-30T12:19:50.281Z,37.80
2019-04-30T12:20:50.317Z,33.80
2019-04-30T12:21:50.355Z,31.10
2019-04-30T12:22:50.390Z,34.50
2019-04-30T12:23:50.427Z,34.70
2019-04-30T12:25:02.185Z,35.40
2019-04-30T12:25:50.501Z,43.00
2019-04-30T12:26:50.538Z,40.50
2019-04-30T12:27:50.571Z,38.30
2019-04-30T12:28:50.607Z,37.50
2019-04-30T12:29:50.643Z,35.80
2019-04-30T12:30:50.679Z,36.70
2019-04-30T12:31:50.717Z,34.30
2019-04-30T12:32:50.750Z,36.30
2019-04-30T12:33:50.794Z,38.10
2019-04-30T12:34:50.822Z,34.60
2019-04-30T12:35:51.347Z,34.70
2019-04-30T12:36:50.897Z,34.30
2019-04-30T12:37:52.509Z,34.40
2019-04-30T12:38:50.970Z,32.70
2019-04-30T12:39:51.003Z,34.40
2019-04-30T12:40:51.037Z,36.70
2019-04-30T12:41:51.081Z,34.00
2019-04-30T12:42:51.128Z,37.60
2019-04-30T12:43:51.147Z,39.00
2019-04-30T12:44:51.203Z,35.50
2019-04-30T12:46:02.225Z,37.70
2019-04-30T12:46:51.251Z,31.90
2019-04-30T12:47:51.287Z,31.50
2019-04-30T12:48:51.323Z,31.90
2019-04-30T12:49:51.358Z,35.30
2019-04-30T12:50:51.394Z,36.20
2019-04-30T12:51:51.430Z,34.60
2019-04-30T12:52:51.463Z,37.10
2019-04-30T12:53:51.499Z,33.60
2019-04-30T12:54:51.534Z,35.70
2019-04-30T12:55:51.571Z,32.60
2019-04-30T12:56:51.606Z,36.70
2019-04-30T12:57:58.793Z,35.80
2019-04-30T12:58:51.679Z,37.10
2019-04-30T12:59:51.714Z,41.40
2019-04-30T13:00:51.748Z,33.40
2019-04-30T13:01:51.783Z,34.60
2019-04-30T13:02:51.819Z,33.40
2019-04-30T13:03:58.655Z,31.80
2019-04-30T13:04:51.892Z,32.80
2019-04-30T13:05:52.513Z,36.80
2019-04-30T13:06:52.502Z,40.20
2019-04-30T13:07:52.487Z,32.10
2019-04-30T13:08:52.929Z,32.40
2019-04-30T13:09:52.528Z,35.80
2019-04-30T13:10:52.673Z,35.10
2019-04-30T13:11:52.601Z,32.40
2019-04-30T13:12:52.667Z,35.40
2019-04-30T13:13:52.670Z,30.10
2019-04-30T13:14:54.686Z,31.80
2019-04-30T13:15:52.304Z,35.70
2019-04-30T13:16:52.340Z,32.70
2019-04-30T13:17:52.379Z,30.30
2019-04-30T13:18:52.418Z,28.70
2019-04-30T13:19:52.455Z,30.60
2019-04-30T13:20:52.557Z,33.10
2019-04-30T13:21:52.532Z,30.70
2019-04-30T13:22:52.569Z,29.60
2019-04-30T13:23:52.609Z,35.70
2019-04-30T13:24:52.654Z,34.60
2019-04-30T13:25:52.683Z,30.20
2019-04-30T13:26:52.722Z,31.30
2019-04-30T13:27:52.762Z,31.30
2019-04-30T13:28:52.798Z,32.00
2019-04-30T13:29:52.837Z,37.60
2019-04-30T13:30:52.874Z,28.00
2019-04-30T13:31:52.921Z,29.50
2019-04-30T13:32:52.972Z,33.20
2019-04-30T13:33:53.613Z,36.00
2019-04-30T13:34:53.070Z,32.30
2019-04-30T13:35:53.088Z,34.20
2019-04-30T13:36:53.533Z,38.10
2019-04-30T13:37:53.137Z,32.80
2019-04-30T13:38:53.175Z,30.60
2019-04-30T13:39:53.336Z,31.00
2019-04-30T13:40:53.250Z,32.70
2019-04-30T13:41:53.335Z,29.40
2019-04-30T13:42:53.324Z,31.90
2019-04-30T13:43:53.366Z,31.60
2019-04-30T13:44:53.400Z,32.90
2019-04-30T13:45:53.438Z,27.90
2019-04-30T13:46:53.528Z,29.10
2019-04-30T13:47:53.515Z,31.80
2019-04-30T13:48:53.553Z,29.50
2019-04-30T13:49:53.593Z,26.00
2019-04-30T13:50:53.630Z,29.90
2019-04-30T13:51:53.671Z,27.00
2019-04-30T13:53:43.905Z,30.90
2019-04-30T13:54:41.314Z,29.60
2019-04-30T13:55:45.633Z,33.20
2019-04-30T13:56:41.398Z,27.40
2019-04-30T13:57:41.431Z,33.00
2019-04-30T13:58:41.472Z,29.20
2019-04-30T13:59:41.511Z,21.70
2019-04-30T14:00:44.172Z,21.70
2019-04-30T14:01:41.592Z,24.20
2019-04-30T14:02:41.631Z,23.20
2019-04-30T14:03:41.673Z,24.50
2019-04-30T14:04:41.714Z,29.50
2019-04-30T14:05:41.755Z,20.40
2019-04-30T14:06:43.013Z,21.10
2019-04-30T14:07:41.841Z,21.30
2019-04-30T14:08:41.913Z,24.20
2019-04-30T14:09:41.927Z,21.50
2019-04-30T14:10:42.174Z,20.60
2019-04-30T14:11:42.016Z,17.60
2019-04-30T14:12:45.694Z,16.90
2019-04-30T14:13:42.107Z,17.10
2019-04-30T14:14:42.151Z,16.20
2019-04-30T14:15:42.221Z,15.70
2019-04-30T14:16:45.470Z,15.30
2019-04-30T14:17:42.314Z,14.70
2019-04-30T14:18:42.333Z,14.60
2019-04-30T14:19:42.380Z,15.00
2019-04-30T14:20:42.426Z,15.60
2019-04-30T14:21:42.475Z,15.90
2019-04-30T14:22:42.520Z,16.90
2019-04-30T14:23:42.566Z,14.90
2019-04-30T14:24:42.613Z,13.20
2019-04-30T14:25:42.660Z,16.70
2019-04-30T14:26:42.712Z,14.80
2019-04-30T14:27:49.473Z,19.40
2019-04-30T14:28:42.801Z,14.70
2019-04-30T14:29:42.846Z,16.90
2019-04-30T14:30:42.894Z,16.50
2019-04-30T14:31:42.939Z,15.40
2019-04-30T14:32:42.988Z,21.20
2019-04-30T14:33:43.035Z,14.50
2019-04-30T14:34:43.095Z,13.70
2019-04-30T14:35:43.127Z,13.80
2019-04-30T14:36:43.175Z,12.60
2019-04-30T14:37:43.221Z,10.80
2019-04-30T14:38:43.268Z,10.40
2019-04-30T14:39:46.079Z,10.10
2019-04-30T14:40:43.875Z,9.50
2019-04-30T14:41:44.171Z,10.10
2019-04-30T14:42:43.945Z,8.70
2019-04-30T14:43:43.953Z,10.40
2019-04-30T14:44:44.230Z,10.70
2019-04-30T14:45:44.140Z,10.20
2019-04-30T14:46:44.029Z,10.20
2019-04-30T14:47:44.679Z,11.50
2019-04-30T14:48:44.486Z,11.40
2019-04-30T14:49:43.791Z,11.80
2019-04-30T14:50:43.840Z,11.40
2019-04-30T14:51:43.886Z,10.30
2019-04-30T14:52:43.956Z,11.30
2019-04-30T14:53:43.982Z,12.10
2019-04-30T14:54:44.028Z,9.90
2019-04-30T14:55:44.101Z,12.10
2019-04-30T14:56:44.123Z,12.20
2019-04-30T14:57:44.171Z,11.40
2019-04-30T14:58:44.218Z,10.70
2019-04-30T14:59:44.264Z,11.00
2019-04-30T15:00:44.312Z,10.50
2019-04-30T15:01:44.359Z,12.10
2019-04-30T15:02:44.404Z,13.80
2019-04-30T15:03:44.450Z,10.90
2019-04-30T15:04:44.494Z,11.40
2019-04-30T15:05:48.763Z,11.70
2019-04-30T15:06:44.584Z,9.90
2019-04-30T15:07:44.630Z,11.40
2019-04-30T15:08:44.693Z,12.00
2019-04-30T15:09:44.735Z,12.70
2019-04-30T15:10:44.784Z,12.20
2019-04-30T15:11:44.814Z,12.20
2019-04-30T15:12:44.882Z,12.30
2019-04-30T15:13:44.956Z,12.40
2019-04-30T15:14:44.972Z,12.90
2019-04-30T15:15:44.994Z,12.80
2019-04-30T15:16:45.030Z,12.60
2019-04-30T15:17:45.276Z,13.70